Time;durP1;ratioP1;P1;durP2;ratioP2;P2;SDS_P1;SDS_P2;PMS_P1;PMS_P2;Temp;Humidity;BMP_temperature;BMP_pressure;BME280_temperature;BME280_humidity;BME280_pressure;Samples;Min_cycle;Max_cycle;Signal;HPM_P1;HPM_P2
2021/12/04 00:02:21;;;;;;;3.58;1.42;;;;;;;-3.06;83.47;98577.69;5043586;28;20030;-71
2021/12/04 00:04:49;;;;;;;1.30;1.00;;;;;;;-3.09;83.81;98586.13;5043350;28;20028;-72
2021/12/04 00:07:14;;;;;;;0.93;0.85;;;;;;;-3.09;83.89;98586.13;5043247;28;20289;-72
2021/12/04 00:09:44;;;;;;;1.55;1.02;;;;;;;-3.05;84.01;98587.06;5043140;28;20460;-73
2021/12/04 00:12:10;;;;;;;2.20;0.95;;;;;;;-3.08;83.99;98577.69;5043112;28;20068;-73
2021/12/04 00:14:36;;;;;;;3.83;1.30;;;;;;;-3.01;83.87;98589.66;5043350;28;20025;-73
2021/12/04 00:17:03;;;;;;;0.60;0.60;;;;;;;-3.04;84.21;98582.00;5043268;28;20024;-74
2021/12/04 00:19:29;;;;;;;1.35;1.00;;;;;;;-3.00;84.08;98577.81;5043377;28;20082;-72
2021/12/04 00:21:55;;;;;;;2.13;1.20;;;;;;;-3.02;84.20;98598.09;5043126;28;20025;-72
2021/12/04 00:24:22;;;;;;;0.90;0.90;;;;;;;-2.88;83.83;98575.50;5043062;28;20026;-73
2021/12/04 00:26:49;;;;;;;1.17;1.08;;;;;;;-2.96;83.99;98583.81;5041835;28;20539;-71
2021/12/04 00:29:15;;;;;;;1.90;1.30;;;;;;;-2.96;84.25;98586.34;5043173;28;20357;-72
2021/12/04 00:31:46;;;;;;;2.25;1.55;;;;;;;-2.99;84.21;98582.91;5043117;28;20667;-73
2021/12/04 00:34:12;;;;;;;;;;;;;;;-2.93;84.55;98588.94;5042192;28;20063;-72
2021/12/04 00:50:11;;;;;;;3.10;1.92;;;;;;;-2.97;85.09;98595.63;5043085;28;20101;-73
2021/12/04 00:52:36;;;;;;;1.55;1.15;;;;;;;-2.95;85.11;98598.19;5042886;28;20077;-72
2021/12/04 00:55:04;;;;;;;2.53;1.75;;;;;;;-2.90;85.17;98594.06;5042773;28;20032;-72
2021/12/04 00:57:29;;;;;;;1.40;0.90;;;;;;;-2.95;85.25;98598.19;5042724;28;20017;-72
2021/12/04 00:59:55;;;;;;;3.25;1.20;;;;;;;-2.94;85.31;98600.75;5044430;28;20565;-73
2021/12/04 01:02:21;;;;;;;3.08;1.30;;;;;;;-2.89;85.26;98595.78;5046804;28;20038;-72
2021/12/04 01:04:48;;;;;;;1.42;1.17;;;;;;;-2.90;85.11;98607.63;5046621;28;20509;-72
2021/12/04 01:07:13;;;;;;;2.85;1.85;;;;;;;-2.90;84.77;98596.59;5046624;28;20360;-73
2021/12/04 01:09:39;;;;;;;2.53;1.50;;;;;;;-2.95;85.02;98595.66;5046576;28;20389;-72
2021/12/04 01:12:05;;;;;;;4.65;1.40;;;;;;;-2.86;84.82;98619.53;5046387;28;20018;-72
2021/12/04 01:14:34;;;;;;;2.38;1.50;;;;;;;-2.90;84.96;98611.84;5044998;28;20087;-72
2021/12/04 01:17:00;;;;;;;1.63;1.27;;;;;;;-2.92;85.09;98618.56;5046571;28;20032;-72
2021/12/04 01:19:26;;;;;;;2.50;1.35;;;;;;;-2.91;85.07;98625.38;5046353;28;20430;-73
2021/12/04 01:21:53;;;;;;;1.77;1.25;;;;;;;-2.92;85.27;98631.25;5046440;28;20028;-72
2021/12/04 01:24:20;;;;;;;3.17;1.25;;;;;;;-2.92;85.22;98633.81;5046174;28;20025;-71
2021/12/04 01:26:46;;;;;;;2.72;1.60;;;;;;;-2.93;85.27;98632.97;5046377;28;20378;-72
2021/12/04 01:29:12;;;;;;;2.60;1.55;;;;;;;-2.92;85.17;98643.97;5046052;28;20121;-71
2021/12/04 01:31:37;;;;;;;1.55;1.20;;;;;;;-2.98;85.35;98642.19;5045921;28;20041;-71
2021/12/04 01:34:02;;;;;;;1.38;1.25;;;;;;;-3.01;85.38;98639.59;5045816;28;20093;-72
2021/12/04 01:36:29;;;;;;;3.05;1.40;;;;;;;-3.04;85.40;98639.53;5046136;28;20077;-72
2021/12/04 01:38:55;;;;;;;0.75;0.73;;;;;;;-2.99;85.37;98648.94;5046268;28;20025;-72
2021/12/04 01:41:20;;;;;;;2.22;1.60;;;;;;;-3.02;85.24;98653.94;5045844;28;20054;-72
2021/12/04 01:43:46;;;;;;;5.00;2.17;;;;;;;-3.04;85.32;98653.09;5045903;28;20033;-72
2021/12/04 01:46:11;;;;;;;4.35;2.20;;;;;;;-3.02;85.56;98653.13;5045531;28;20032;-72
2021/12/04 01:48:37;;;;;;;2.05;1.40;;;;;;;-3.01;85.44;98650.59;5045820;28;20025;-72
2021/12/04 01:51:03;;;;;;;2.63;1.63;;;;;;;-3.03;85.30;98664.94;5045936;28;20045;-72
2021/12/04 01:53:28;;;;;;;1.88;1.65;;;;;;;-3.00;85.33;98664.13;5046050;28;20026;-72
2021/12/04 01:55:56;;;;;;;3.17;1.92;;;;;;;-3.02;85.29;98664.09;5045745;28;20047;-72
2021/12/04 01:58:23;;;;;;;3.85;2.10;;;;;;;-3.06;85.12;98672.50;5045675;28;20093;-71
2021/12/04 02:00:48;;;;;;;2.85;1.90;;;;;;;-3.07;85.13;98670.81;5045764;28;20117;-71
2021/12/04 02:03:14;;;;;;;2.10;1.70;;;;;;;-3.06;85.37;98677.59;5045554;28;20029;-72
2021/12/04 02:05:41;;;;;;;2.60;1.70;;;;;;;-3.08;85.36;98681.78;5044212;28;20059;-72
2021/12/04 02:08:07;;;;;;;2.70;1.55;;;;;;;-3.11;85.32;98676.63;5045657;28;20108;-72
2021/12/04 02:10:34;;;;;;;3.17;1.80;;;;;;;-3.08;85.19;98691.94;5045311;28;20056;-73
2021/12/04 02:13:00;;;;;;;2.13;1.75;;;;;;;-3.11;85.36;98684.25;5045254;28;20478;-73
2021/12/04 02:15:25;;;;;;;3.38;2.22;;;;;;;-3.12;85.42;98690.16;5045197;28;20025;-73
2021/12/04 02:17:51;;;;;;;4.05;1.92;;;;;;;-3.12;85.41;98682.56;5045288;28;20025;-72
2021/12/04 02:20:19;;;;;;;0.93;0.93;;;;;;;-3.16;85.32;98675.69;5045203;28;20036;-72
2021/12/04 02:22:45;;;;;;;3.80;2.03;;;;;;;-3.13;85.37;98683.38;5045309;28;20036;-73
2021/12/04 02:25:11;;;;;;;3.60;1.88;;;;;;;-3.15;85.44;98675.75;5043926;28;20025;-73
2021/12/04 02:27:37;;;;;;;2.45;1.63;;;;;;;-3.17;85.42;98681.59;5045119;28;20075;-73
2021/12/04 02:30:17;;;;;;;2.13;1.48;;;;;;;-3.21;85.54;98673.06;5044907;28;20026;-72
2021/12/04 02:32:43;;;;;;;1.75;1.40;;;;;;;-3.15;85.26;98674.88;5044888;28;20030;-73
2021/12/04 02:35:10;;;;;;;2.45;1.58;;;;;;;-3.13;84.95;98668.16;5044849;28;20061;-72
2021/12/04 02:37:37;;;;;;;1.88;1.63;;;;;;;-3.14;85.31;98669.81;5045109;28;20523;-72
2021/12/04 02:40:08;;;;;;;3.72;2.13;;;;;;;-3.13;85.37;98680.84;5045104;28;20524;-72
2021/12/04 02:42:34;;;;;;;4.25;2.00;;;;;;;-3.15;85.41;98687.56;5044761;28;20052;-72
2021/12/04 02:45:01;;;;;;;1.88;1.20;;;;;;;-3.15;85.36;98688.44;5043298;28;20028;-73
2021/12/04 02:47:28;;;;;;;2.95;1.73;;;;;;;-3.17;85.39;98690.09;5044478;28;20029;-72
2021/12/04 02:49:54;;;;;;;3.35;1.98;;;;;;;-3.18;85.34;98702.75;5044492;28;20025;-72
2021/12/04 02:52:20;;;;;;;2.63;2.05;;;;;;;-3.21;85.23;98697.63;5043296;28;20022;-70
2021/12/04 02:54:45;;;;;;;4.30;1.42;;;;;;;-3.21;85.23;98700.16;5044658;28;20048;-71
2021/12/04 02:57:13;;;;;;;5.72;2.00;;;;;;;-3.18;84.89;98697.66;5044359;28;20563;-71
2021/12/04 02:59:40;;;;;;;2.40;1.83;;;;;;;-3.24;85.06;98703.47;5044468;28;20096;-71
2021/12/04 03:02:07;;;;;;;2.97;1.67;;;;;;;-3.25;84.81;98702.63;5044418;28;20025;-72
2021/12/04 03:04:32;;;;;;;6.35;1.92;;;;;;;-3.27;84.92;98709.34;5044426;28;20092;-71
2021/12/04 03:06:58;;;;;;;3.90;2.22;;;;;;;-3.33;85.12;98709.22;5044135;28;20044;-72
2021/12/04 03:09:23;;;;;;;3.10;1.88;;;;;;;-3.37;85.14;98710.84;5044398;28;20029;-71
2021/12/04 03:11:49;;;;;;;1.95;1.48;;;;;;;-3.39;84.99;98724.31;5044331;28;20109;-71
2021/12/04 03:14:16;;;;;;;2.20;1.80;;;;;;;-3.41;84.90;98733.59;5043857;28;20433;-71
2021/12/04 03:16:43;;;;;;;2.90;1.88;;;;;;;-3.46;85.01;98725.88;5044038;28;20021;-71
2021/12/04 03:19:08;;;;;;;4.88;1.92;;;;;;;-3.48;84.84;98735.13;5042763;28;20030;-71
2021/12/04 03:21:36;;;;;;;2.10;0.90;;;;;;;-3.51;84.73;98725.78;5043882;28;20028;-71
2021/12/04 03:24:04;;;;;;;2.45;1.85;;;;;;;-3.55;84.50;98731.63;5043618;28;20025;-71
2021/12/04 03:26:30;;;;;;;3.10;1.65;;;;;;;-3.63;84.40;98718.78;5043625;28;20052;-71
2021/12/04 03:28:57;;;;;;;4.32;1.85;;;;;;;-3.65;84.43;98730.56;5042813;28;20021;-71
2021/12/04 03:42:06;;;;;;;2.58;1.42;;;;;;;-3.90;84.35;98737.59;5043647;28;20052;-71
2021/12/04 03:44:32;;;;;;;5.65;2.05;;;;;;;-3.99;84.49;98735.72;5043674;28;20025;-71
2021/12/04 03:47:00;;;;;;;3.03;1.83;;;;;;;-4.02;84.28;98727.19;5042178;28;20021;-72
2021/12/04 03:49:25;;;;;;;4.03;1.88;;;;;;;-4.01;84.51;98744.13;5043656;28;20029;-71
2021/12/04 03:51:50;;;;;;;2.75;2.00;;;;;;;-4.06;84.38;98741.47;5043619;28;20468;-71
2021/12/04 03:54:16;;;;;;;2.67;1.60;;;;;;;-4.08;84.52;98737.16;5043442;28;20017;-71
2021/12/04 03:56:42;;;;;;;2.88;1.40;;;;;;;-4.19;84.29;98727.66;5043584;28;20092;-71
2021/12/04 03:59:08;;;;;;;1.70;1.10;;;;;;;-4.17;84.34;98738.66;5043254;28;20030;-71
2021/12/04 04:01:33;;;;;;;2.38;1.48;;;;;;;-4.17;84.32;98727.69;5043382;28;20017;-70
2021/12/04 04:03:59;;;;;;;3.20;1.55;;;;;;;-4.31;84.35;98710.47;5042073;28;20027;-70
2021/12/04 04:06:24;;;;;;;2.88;1.80;;;;;;;-4.23;84.25;98741.91;5043225;28;20075;-71
2021/12/04 04:08:49;;;;;;;2.40;1.48;;;;;;;-4.27;84.26;98742.66;5042075;28;20236;-71
2021/12/04 04:11:15;;;;;;;3.30;1.60;;;;;;;-4.46;84.52;98721.09;5043293;28;20017;-71
2021/12/04 04:13:43;;;;;;;2.50;1.17;;;;;;;-4.33;84.38;98752.66;5041711;28;20032;-71
2021/12/04 04:16:09;;;;;;;2.00;1.60;;;;;;;-4.41;84.35;98746.53;5043166;28;20010;-72
2021/12/04 04:18:34;;;;;;;2.13;1.27;;;;;;;-4.34;84.31;98763.59;5041546;28;20025;-71
2021/12/04 04:21:00;;;;;;;1.90;1.50;;;;;;;-4.35;84.13;98761.88;5043236;28;20525;-71
2021/12/04 04:23:25;;;;;;;2.42;1.58;;;;;;;-4.36;84.08;98767.78;5043071;28;20033;-71
2021/12/04 04:25:52;;;;;;;1.88;1.20;;;;;;;-4.41;84.09;98764.28;5042966;28;20033;-71
2021/12/04 04:28:18;;;;;;;2.67;1.27;;;;;;;-4.43;84.14;98765.91;5041658;28;20051;-70
2021/12/04 04:30:43;;;;;;;2.20;1.13;;;;;;;-4.50;84.29;98768.28;5041496;28;20103;-71
2021/12/04 04:33:12;;;;;;;3.38;1.77;;;;;;;-4.50;84.35;98775.88;5043027;28;20093;-71
2021/12/04 04:35:38;;;;;;;2.55;1.45;;;;;;;-4.46;84.27;98789.50;5046101;28;20032;-72
2021/12/04 05:13:17;;;;;;;2.60;1.75;;;;;;;-4.55;83.61;98814.59;5045893;28;20329;-71
2021/12/04 05:15:56;;;;;;;2.53;1.65;;;;;;;-4.48;83.50;98817.31;5045947;28;20025;-71
2021/12/04 05:21:04;;;;;;;1.75;1.30;;;;;;;-4.43;83.15;98803.91;5046238;28;20034;-71
2021/12/04 05:23:34;;;;;;;1.15;0.90;;;;;;;-4.43;83.23;98807.31;5046154;28;20095;-71
2021/12/04 05:26:01;;;;;;;1.58;1.10;;;;;;;-4.47;83.17;98797.88;5044434;28;20032;-71
2021/12/04 05:28:27;;;;;;;1.67;1.33;;;;;;;-4.45;83.10;98796.25;5045673;28;20021;-72
2021/12/04 05:30:53;;;;;;;2.13;1.67;;;;;;;-4.48;82.90;98812.25;5044231;28;20080;-71
2021/12/04 05:33:18;;;;;;;2.28;1.73;;;;;;;-4.45;82.97;98814.00;5046357;28;20052;-71
2021/12/04 05:35:47;;;;;;;2.00;1.25;;;;;;;-4.49;83.15;98815.59;5045666;28;20029;-70
2021/12/04 05:38:13;;;;;;;3.10;1.88;;;;;;;-4.43;83.21;98811.50;5045681;28;20025;-71
2021/12/04 05:40:39;;;;;;;1.25;1.10;;;;;;;-4.36;82.83;98819.31;5045491;28;20392;-71
2021/12/04 05:43:04;;;;;;;2.88;1.38;;;;;;;-4.39;82.94;98815.81;5045405;28;20022;-71
2021/12/04 05:45:37;;;;;;;2.53;1.70;;;;;;;-4.36;82.87;98823.53;5044949;28;20028;-71
2021/12/04 05:48:08;;;;;;;1.88;1.42;;;;;;;-4.21;82.54;98828.13;5044182;28;20158;-71
2021/12/04 05:53:27;;;;;;;2.63;1.52;;;;;;;-4.27;82.50;98821.22;5045633;28;20038;-70
2021/12/04 05:55:53;;;;;;;2.78;1.55;;;;;;;-4.30;82.72;98828.75;5045384;28;20516;-70
2021/12/04 05:58:39;;;;;;;1.23;1.13;;;;;;;-4.26;82.84;98830.53;5045175;28;20033;-70
2021/12/04 06:01:05;;;;;;;1.35;1.05;;;;;;;-4.17;82.20;98842.56;5044989;28;20037;-71
2021/12/04 06:03:31;;;;;;;2.50;1.70;;;;;;;-4.30;82.65;98838.91;5043820;28;20039;-70
2021/12/04 06:05:57;;;;;;;1.85;1.33;;;;;;;-4.22;82.60;98854.28;5043652;28;20040;-70
2021/12/04 06:08:22;;;;;;;3.25;1.42;;;;;;;-4.29;82.37;98850.72;5045228;28;20030;-71
2021/12/04 06:10:49;;;;;;;1.50;1.10;;;;;;;-4.25;82.50;98865.19;5045194;28;20029;-70
2021/12/04 06:13:15;;;;;;;1.10;1.00;;;;;;;-4.19;82.49;98867.03;5044907;28;20041;-72
2021/12/04 06:15:41;;;;;;;2.47;1.38;;;;;;;-4.26;82.50;98881.22;5043634;28;20091;-69
2021/12/04 06:18:08;;;;;;;4.43;2.35;;;;;;;-4.30;82.89;98881.09;5045334;28;20454;-71
2021/12/04 06:23:19;;;;;;;2.83;1.55;;;;;;;-4.31;82.75;98877.69;5045158;28;20086;-70
2021/12/04 06:25:44;;;;;;;1.67;1.00;;;;;;;-4.32;82.61;98878.53;5044651;28;20473;-69
2021/12/04 06:28:10;;;;;;;2.08;1.50;;;;;;;-4.25;82.42;98880.41;5044647;28;20025;-70
2021/12/04 06:30:37;;;;;;;1.67;1.17;;;;;;;-4.35;82.35;98878.44;5044631;28;20057;-71
2021/12/04 06:33:05;;;;;;;1.13;1.02;;;;;;;-4.32;82.54;98878.53;5044833;28;20100;-70
2021/12/04 06:35:32;;;;;;;2.25;1.30;;;;;;;-4.37;82.47;98873.34;5044748;28;20044;-70
2021/12/04 06:37:58;;;;;;;2.95;1.50;;;;;;;-4.45;82.72;98872.25;5044784;28;20509;-70
2021/12/04 06:40:26;;;;;;;1.83;1.08;;;;;;;-4.57;82.84;98860.13;5044575;28;20032;-70
2021/12/04 06:42:53;;;;;;;1.48;1.10;;;;;;;-4.47;82.59;98878.94;5044396;28;20037;-70
2021/12/04 06:45:19;;;;;;;2.38;1.40;;;;;;;-4.48;82.75;98900.03;5044475;28;20097;-70
2021/12/04 06:48:00;;;;;;;2.55;1.38;;;;;;;-4.51;82.77;98910.09;5044391;28;20022;-70
2021/12/04 06:53:01;;;;;;;2.25;1.52;;;;;;;-4.56;82.75;98912.50;5044615;28;20026;-70
2021/12/04 06:55:28;;;;;;;2.65;1.35;;;;;;;-4.56;82.72;98911.63;5044246;28;20224;-70
2021/12/04 06:57:54;;;;;;;2.65;1.92;;;;;;;-4.62;82.71;98909.78;5043200;28;20018;-70
2021/12/04 07:00:20;;;;;;;4.55;2.45;;;;;;;-4.78;82.54;98884.03;5044332;28;20021;-72
2021/12/04 07:02:45;;;;;;;2.65;2.00;;;;;;;-4.60;82.72;98916.63;5044186;28;20081;-70
2021/12/04 07:05:11;;;;;;;1.90;1.63;;;;;;;-4.64;82.66;98919.88;5044035;28;20021;-70
2021/12/04 07:07:36;;;;;;;4.78;1.88;;;;;;;-4.68;82.80;98922.28;5042732;28;20026;-71
2021/12/04 07:10:03;;;;;;;3.20;2.30;;;;;;;-4.67;82.78;98911.31;5043911;28;20075;-72
2021/12/04 07:12:28;;;;;;;2.45;1.67;;;;;;;-4.70;82.78;98917.19;5043493;28;20063;-71
2021/12/04 07:14:54;;;;;;;2.22;1.58;;;;;;;-4.74;82.79;98912.81;5042348;28;20025;-71
2021/12/04 07:17:19;;;;;;;2.67;1.42;;;;;;;-4.76;82.90;98915.31;5044026;28;20418;-72
2021/12/04 07:19:44;;;;;;;3.83;1.70;;;;;;;-4.78;83.15;98918.63;5042619;28;20061;-71
2021/12/04 07:22:11;;;;;;;1.63;1.17;;;;;;;-4.77;83.17;98925.38;5043859;28;20031;-71
2021/12/04 07:24:36;;;;;;;1.95;1.80;;;;;;;-4.74;83.03;98922.94;5043761;28;20059;-71
2021/12/04 07:27:02;;;;;;;5.82;1.60;;;;;;;-4.75;83.22;98933.91;5041822;28;20037;-71
2021/12/04 07:29:27;;;;;;;1.85;1.20;;;;;;;-4.92;83.12;98911.47;5042723;28;20125;-72
2021/12/04 07:31:52;;;;;;;3.92;2.42;;;;;;;-4.74;83.19;98943.19;5043069;28;20113;-71
2021/12/04 07:34:18;;;;;;;2.72;1.80;;;;;;;-4.90;83.27;98911.50;5043763;28;20021;-71
2021/12/04 07:36:43;;;;;;;3.40;2.05;;;;;;;-4.70;83.45;98955.16;5043423;28;20017;-71
2021/12/04 07:39:09;;;;;;;2.13;1.17;;;;;;;-4.68;83.33;98953.50;5043279;28;20029;-71
2021/12/04 07:41:38;;;;;;;4.18;2.55;;;;;;;-4.72;83.60;98946.66;5043453;28;20025;-70
2021/12/04 07:44:08;;;;;;;3.42;1.52;;;;;;;-4.63;83.63;98961.25;5043270;28;20496;-71
2021/12/04 07:46:33;;;;;;;3.20;2.05;;;;;;;-4.62;83.70;98966.34;5042020;28;20474;-71
2021/12/04 07:48:58;;;;;;;1.65;1.33;;;;;;;-4.76;83.47;98937.25;5043602;28;20036;-71
2021/12/04 07:51:24;;;;;;;2.47;1.70;;;;;;;-4.50;83.54;98981.06;5043379;28;20021;-71
2021/12/04 07:53:49;;;;;;;2.97;2.10;;;;;;;-4.50;83.86;98992.88;5043372;28;20021;-71
2021/12/04 07:56:15;;;;;;;2.60;1.83;;;;;;;-4.44;83.97;99002.34;5041795;28;20028;-71
2021/12/04 07:58:42;;;;;;;4.63;2.10;;;;;;;-4.29;84.07;98995.19;5043143;28;20026;-71
2021/12/04 08:01:09;;;;;;;3.95;2.08;;;;;;;-3.89;84.45;99004.72;5043166;28;20022;-71
2021/12/04 08:03:34;;;;;;;3.95;1.70;;;;;;;-3.53;83.90;99006.50;5043030;28;20024;-71
2021/12/04 08:05:59;;;;;;;3.67;2.10;;;;;;;-3.31;82.63;99001.13;5041939;28;20457;-66
2021/12/04 08:08:25;;;;;;;2.92;1.60;;;;;;;-3.38;81.90;98982.34;5043334;28;20033;-67
2021/12/04 08:10:50;;;;;;;2.92;2.05;;;;;;;-3.40;81.53;99004.28;5043276;28;20079;-69
2021/12/04 08:13:15;;;;;;;2.67;1.85;;;;;;;-3.53;81.34;98998.91;5042812;28;20029;-69
2021/12/04 08:15:41;;;;;;;6.15;1.73;;;;;;;-3.72;81.62;98984.03;5042907;28;20288;-69
2021/12/04 08:18:08;;;;;;;8.45;1.80;;;;;;;-3.68;81.44;98995.97;5042868;28;20025;-69
2021/12/04 08:20:33;;;;;;;3.45;1.95;;;;;;;-3.75;81.49;98987.31;5043062;28;20100;-69
2021/12/04 08:22:59;;;;;;;1.38;1.25;;;;;;;-3.80;81.97;98991.44;5043019;28;20401;-69
2021/12/04 08:25:25;;;;;;;0.80;0.80;;;;;;;-3.60;82.19;99009.72;5058261;28;20026;-68
2021/12/04 08:27:52;;;;;;;4.35;1.90;;;;;;;-3.45;82.09;99013.47;5042668;28;20018;-68
2021/12/04 08:30:23;;;;;;;1.95;1.25;;;;;;;-3.40;81.88;99004.28;5042928;28;20029;-68
2021/12/04 08:32:52;;;;;;;2.30;1.37;;;;;;;-3.13;82.16;99016.81;5043092;28;20028;-69
2021/12/04 08:35:18;;;;;;;2.90;1.58;;;;;;;-2.93;81.44;99013.03;5042760;28;20727;-70
2021/12/04 08:37:45;;;;;;;3.10;1.98;;;;;;;-2.76;81.00;99019.38;5042809;28;20068;-70
2021/12/04 08:40:14;;;;;;;2.38;1.75;;;;;;;-2.45;80.65;99024.31;5042719;28;20030;-71
2021/12/04 08:42:44;;;;;;;2.42;1.50;;;;;;;-2.39;80.03;99006.63;5042382;28;20379;-72
2021/12/04 08:45:12;;;;;;;2.17;1.48;;;;;;;-2.07;79.67;99012.34;5041369;28;20022;-75
2021/12/04 08:47:38;;;;;;;3.75;2.13;;;;;;;-1.61;78.76;99027.66;5043036;28;20083;-67
2021/12/04 08:50:07;;;;;;;2.28;1.52;;;;;;;-1.36;77.73;99033.22;5043097;28;20059;-75
2021/12/04 08:52:32;;;;;;;3.97;1.38;;;;;;;-1.10;77.61;99021.75;5042982;28;20373;-70
2021/12/04 08:54:57;;;;;;;5.13;1.40;;;;;;;-0.88;76.43;99028.06;5042526;28;20017;-71
2021/12/04 08:57:23;;;;;;;1.85;1.17;;;;;;;-0.63;76.50;99036.06;5042481;28;20021;-70
2021/12/04 08:59:49;;;;;;;2.28;1.50;;;;;;;-0.41;75.85;99041.47;5042730;28;20022;-72
2021/12/04 09:02:17;;;;;;;2.63;1.48;;;;;;;-0.21;74.66;99046.88;5058036;28;20033;-73
2021/12/04 09:04:44;;;;;;;2.67;1.60;;;;;;;-0.26;74.56;99051.06;5042839;28;20085;-72
2021/12/04 09:07:10;;;;;;;4.70;1.88;;;;;;;-0.16;73.73;99057.97;5042814;28;20045;-72
2021/12/04 09:09:35;;;;;;;3.15;1.60;;;;;;;-0.11;74.07;99064.84;5042627;28;20033;-70
2021/12/04 09:12:05;;;;;;;2.60;1.25;;;;;;;0.03;73.77;99075.25;5042837;28;20291;-71
2021/12/04 09:14:35;;;;;;;2.67;1.90;;;;;;;0.09;73.42;99078.72;5042496;28;20032;-70
2021/12/04 09:17:03;;;;;;;2.22;1.45;;;;;;;0.23;73.50;99084.00;5041223;28;20658;-71
2021/12/04 09:19:31;;;;;;;2.45;1.50;;;;;;;0.32;72.61;99075.59;5040840;28;20021;-69
2021/12/04 09:21:57;;;;;;;4.28;1.88;;;;;;;0.08;72.17;99076.16;5045669;28;20071;-71
2021/12/04 09:24:27;;;;;;;2.60;1.80;;;;;;;-0.23;72.04;99085.94;5046127;28;20025;-71
2021/12/04 09:27:07;;;;;;;2.28;1.52;;;;;;;-0.67;72.60;99075.13;5046242;28;20370;-71
2021/12/04 10:12:48;;;;;;;1.38;1.00;;;;;;;0.23;69.30;99095.91;5045426;28;20055;-70
2021/12/04 10:20:55;;;;;;;2.97;1.45;;;;;;;0.01;70.64;99094.75;5045913;28;20033;-72
2021/12/04 10:34:38;;;;;;;1.27;1.17;;;;;;;-0.56;70.88;99078.66;5045289;28;19932;-71
2021/12/04 10:37:13;;;;;;;3.60;1.42;;;;;;;-0.79;71.79;99079.19;5045388;28;20009;-71
2021/12/04 10:39:39;;;;;;;4.88;1.92;;;;;;;-0.92;72.25;99080.66;5045263;28;20519;-71
2021/12/04 10:42:12;;;;;;;1.67;1.38;;;;;;;-0.90;72.48;99103.63;5045160;28;20036;-73
2021/12/04 10:44:41;;;;;;;5.00;1.52;;;;;;;-1.01;72.74;99095.78;5044906;28;20021;-71
2021/12/04 10:47:12;;;;;;;3.05;1.63;;;;;;;-1.07;73.18;99106.72;5045043;28;20026;-71
2021/12/04 10:49:51;;;;;;;1.63;1.13;;;;;;;-1.14;73.39;99089.63;5044975;28;20504;-71
2021/12/04 10:55:34;;;;;;;3.85;1.65;;;;;;;-1.08;73.38;99097.38;5044890;28;20085;-71
2021/12/04 11:43:03;;;;;;;2.75;1.70;;;;;;;-1.48;74.96;99116.97;5043457;28;20026;-71
2021/12/04 11:48:34;;;;;;;2.50;1.95;;;;;;;-1.47;75.21;99123.81;5043847;28;20052;-71
2021/12/04 11:51:00;;;;;;;3.40;1.65;;;;;;;-1.58;75.63;99128.69;5043544;28;20048;-71
2021/12/04 11:53:27;;;;;;;4.00;1.70;;;;;;;-1.51;75.76;99140.69;5043769;28;20053;-71
2021/12/04 11:55:53;;;;;;;2.55;1.80;;;;;;;-1.40;75.31;99143.44;5043604;28;20040;-71
2021/12/04 11:58:28;;;;;;;2.25;1.55;;;;;;;-1.52;75.75;99142.38;5043357;28;20056;-71
2021/12/04 12:00:58;;;;;;;1.85;1.38;;;;;;;-1.52;75.99;99144.91;5042525;28;20380;-71
2021/12/04 12:03:32;;;;;;;4.40;2.17;;;;;;;-1.46;76.23;99151.84;5043318;28;20052;-72
2021/12/04 12:06:04;;;;;;;4.60;1.90;;;;;;;-1.45;76.39;99145.91;5043223;28;20029;-71
2021/12/04 12:08:38;;;;;;;2.72;2.00;;;;;;;-1.43;76.39;99138.31;5042246;28;20103;-71
2021/12/04 12:11:13;;;;;;;1.75;1.38;;;;;;;-1.32;76.09;99151.25;5043361;28;20040;-72
2021/12/04 12:13:50;;;;;;;3.33;1.80;;;;;;;-1.39;76.19;99145.19;5043220;28;20183;-71
2021/12/04 12:16:22;;;;;;;1.58;1.33;;;;;;;-1.32;76.07;99152.09;5043308;28;20021;-71
2021/12/04 12:18:53;;;;;;;3.85;2.42;;;;;;;-1.43;76.25;99148.50;5043593;28;20028;-71
2021/12/04 12:21:28;;;;;;;2.35;1.65;;;;;;;-1.39;76.57;99152.84;5041897;28;20093;-72
2021/12/04 12:27:10;;;;;;;2.38;1.88;;;;;;;-1.35;76.29;99152.06;5042945;28;20022;-68
2021/12/04 12:32:46;;;;;;;1.40;1.30;;;;;;;-1.34;76.23;99163.09;5042911;28;20092;-68
2021/12/04 12:36:03;;;;;;;5.63;1.20;;;;;;;-1.44;76.40;99170.56;5043074;28;20041;-68
2021/12/04 12:38:57;;;;;;;9.88;1.50;;;;;;;-1.44;76.54;99173.09;5036769;28;20175;-68
2021/12/04 12:41:24;;;;;;;6.38;2.08;;;;;;;-1.44;76.41;99167.16;5034735;28;20117;-68
2021/12/04 12:43:59;;;;;;;3.58;1.50;;;;;;;-1.48;76.48;99183.16;5042760;28;20029;-68
2021/12/04 12:46:49;;;;;;;1.77;1.40;;;;;;;-1.42;76.06;99185.88;5042980;28;20505;-68
2021/12/04 12:49:26;;;;;;;1.98;1.52;;;;;;;-1.54;76.25;99182.25;5042983;28;20052;-68
2021/12/04 12:52:00;;;;;;;2.65;1.70;;;;;;;-1.58;76.29;99184.69;5041679;28;20026;-68
2021/12/04 12:54:31;;;;;;;1.98;1.45;;;;;;;-1.62;76.40;99181.22;5042903;28;20028;-69
2021/12/04 12:57:04;;;;;;;2.42;1.58;;;;;;;-1.72;76.59;99181.81;5046415;28;20031;-68
2021/12/04 12:59:54;;;;;;;3.17;1.73;;;;;;;-1.67;76.78;99182.78;5046721;28;20068;-69
2021/12/04 13:14:21;;;;;;;2.53;1.88;;;;;;;-1.77;77.25;99200.41;5046445;28;20045;-68
2021/12/04 13:16:59;;;;;;;2.38;1.45;;;;;;;-1.75;77.10;99208.94;5046601;28;20096;-68
2021/12/04 13:19:25;;;;;;;3.25;1.90;;;;;;;-1.75;77.19;99208.94;5045557;28;20051;-68
2021/12/04 13:21:55;;;;;;;1.83;1.55;;;;;;;-1.87;77.29;99204.41;5046822;28;20029;-67
2021/12/04 13:24:27;;;;;;;3.45;1.98;;;;;;;-1.79;77.35;99221.56;5045399;28;20014;-67
2021/12/04 13:26:56;;;;;;;4.88;2.75;;;;;;;-1.81;77.42;99218.97;5045897;28;20108;-68
2021/12/04 13:29:25;;;;;;;3.30;1.80;;;;;;;-1.85;77.60;99226.50;5046116;28;20025;-69
2021/12/04 13:31:57;;;;;;;4.03;1.85;;;;;;;-1.84;77.45;99221.47;5046324;28;20046;-67
2021/12/04 13:34:25;;;;;;;3.67;2.33;;;;;;;-1.88;77.77;99227.28;5046241;28;20120;-68
2021/12/04 13:36:53;;;;;;;3.13;1.92;;;;;;;-1.89;77.73;99240.84;5045983;28;20030;-68
2021/12/04 13:39:20;;;;;;;3.03;1.98;;;;;;;-1.97;77.85;99234.69;5046141;28;20017;-68
2021/12/04 13:41:47;;;;;;;5.57;2.22;;;;;;;-1.91;77.76;99243.34;5046419;28;20253;-68
2021/12/04 13:44:16;;;;;;;2.90;2.20;;;;;;;-2.03;77.92;99232.88;5045952;28;20029;-68
2021/12/04 13:46:46;;;;;;;2.83;1.67;;;;;;;-1.92;77.89;99253.50;5045925;28;20084;-69
2021/12/04 13:49:15;;;;;;;1.58;1.40;;;;;;;-1.93;77.95;99256.88;5046385;28;20029;-68
2021/12/04 13:51:41;;;;;;;2.85;1.92;;;;;;;-2.06;77.96;99238.75;5045991;28;20386;-66
2021/12/04 13:54:08;;;;;;;7.53;2.20;;;;;;;-1.97;78.19;99260.16;5046112;28;20142;-67
2021/12/04 13:56:34;;;;;;;2.60;1.50;;;;;;;-1.98;78.17;99260.97;5045808;28;20033;-67
2021/12/04 13:59:03;;;;;;;2.90;2.15;;;;;;;-2.03;77.99;99253.25;5045793;28;20025;-68
2021/12/04 14:01:30;;;;;;;1.52;1.42;;;;;;;-2.23;78.22;99225.63;5045781;28;20029;-67
2021/12/04 14:04:02;;;;;;;2.58;1.80;;;;;;;-1.99;78.12;99255.03;5045825;28;20059;-67
2021/12/04 14:06:29;;;;;;;2.72;2.10;;;;;;;-2.08;78.36;99257.34;5043859;28;20017;-66
2021/12/04 14:09:00;;;;;;;4.78;2.35;;;;;;;-2.10;78.47;99267.47;5045934;28;20030;-67
2021/12/04 14:11:32;;;;;;;2.03;1.70;;;;;;;-2.14;78.38;99250.44;5045843;28;20034;-68
2021/12/04 14:13:57;;;;;;;;;;;;;;;-2.07;78.48;99257.38;5045801;28;20059;-68
2021/12/04 14:16:25;;;;;;;2.35;1.40;;;;;;;-2.17;78.54;99260.53;5045402;28;20236;-69
2021/12/04 14:18:51;;;;;;;3.28;2.05;;;;;;;-2.19;78.47;99264.72;5045668;28;20521;-67
2021/12/04 14:21:16;;;;;;;2.85;2.05;;;;;;;-2.25;78.66;99270.50;5044016;28;20052;-67
2021/12/04 14:23:47;;;;;;;3.53;2.17;;;;;;;-2.25;78.82;99273.03;5044127;28;20048;-68
2021/12/04 14:26:15;;;;;;;3.33;1.88;;;;;;;-2.29;79.10;99272.13;5043389;28;20188;-67
2021/12/04 14:28:43;;;;;;;2.67;1.38;;;;;;;-2.26;79.04;99282.38;5045082;28;20025;-67
2021/12/04 14:31:10;;;;;;;4.78;2.28;;;;;;;-2.30;79.14;99259.38;5045125;28;20050;-68
2021/12/04 14:33:37;;;;;;;5.32;2.55;;;;;;;-2.29;79.10;99266.16;5045255;28;20430;-68
2021/12/04 14:36:03;;;;;;;2.03;1.70;;;;;;;-2.31;79.07;99260.16;5045369;28;20080;-68
2021/12/04 14:38:29;;;;;;;4.53;2.00;;;;;;;-2.26;79.27;99277.28;5045119;28;20033;-68
2021/12/04 14:41:02;;;;;;;2.55;1.70;;;;;;;-2.32;79.09;99271.16;5045329;28;20026;-67
2021/12/04 14:43:34;;;;;;;2.45;1.92;;;;;;;-2.40;79.38;99255.72;5045016;28;20034;-68
2021/12/04 14:46:00;;;;;;;4.03;2.28;;;;;;;-2.28;79.39;99273.81;5043605;28;20025;-66
2021/12/04 14:48:33;;;;;;;2.25;1.83;;;;;;;-2.31;79.50;99267.78;5044992;28;20037;-68
2021/12/04 14:51:05;;;;;;;2.65;2.03;;;;;;;-2.40;79.68;99260.81;5045033;28;20022;-68
2021/12/04 14:53:33;;;;;;;2.95;1.75;;;;;;;-2.42;79.76;99262.44;5043473;28;20044;-68
2021/12/04 14:55:59;;;;;;;4.45;2.67;;;;;;;-2.41;79.81;99274.34;5044679;28;20341;-69
2021/12/04 14:58:30;;;;;;;3.83;2.08;;;;;;;-2.42;79.79;99282.78;5043108;28;20029;-67